createdAt,value
2023-03-06T00:00:18.482Z,27.75
2023-03-06T00:02:46.671Z,34.15
2023-03-06T00:05:16.074Z,31.70
2023-03-06T00:07:44.796Z,29.75
2023-03-06T00:10:14.816Z,27.55
2023-03-06T00:12:44.117Z,29.80
2023-03-06T00:15:12.880Z,28.30
2023-03-06T00:17:41.779Z,28.20
2023-03-06T00:20:11.763Z,26.58
2023-03-06T00:22:40.053Z,28.27
2023-03-06T00:25:09.066Z,31.20
2023-03-06T00:27:37.072Z,28.73
2023-03-06T00:30:07.714Z,30.98
2023-03-06T00:32:35.758Z,29.50
2023-03-06T00:35:03.745Z,27.45
2023-03-06T00:37:31.646Z,29.55
2023-03-06T00:39:59.488Z,26.92
2023-03-06T00:42:27.383Z,29.40
2023-03-06T00:44:55.252Z,26.85
2023-03-06T00:47:24.511Z,27.25
2023-03-06T00:49:52.436Z,30.02
2023-03-06T00:52:20.359Z,30.93
2023-03-06T00:54:48.225Z,28.27
2023-03-06T00:57:16.142Z,30.90
2023-03-06T00:59:44.194Z,26.67
2023-03-06T01:02:12.156Z,29.15
2023-03-06T01:04:41.483Z,27.67
2023-03-06T01:07:09.480Z,29.67
2023-03-06T01:09:37.421Z,28.43
2023-03-06T01:12:05.719Z,29.90
2023-03-06T01:14:33.654Z,27.70
2023-03-06T01:17:01.572Z,30.70
2023-03-06T01:19:29.498Z,29.42
2023-03-06T01:21:58.829Z,28.70
2023-03-06T01:24:26.876Z,28.10
2023-03-06T01:26:54.797Z,30.48
2023-03-06T01:29:22.661Z,27.37
2023-03-06T01:31:50.625Z,33.33
2023-03-06T01:34:18.655Z,34.40
2023-03-06T01:36:46.522Z,32.42
2023-03-06T01:39:15.786Z,34.00
2023-03-06T01:41:43.680Z,32.80
2023-03-06T01:44:13.654Z,31.95
2023-03-06T01:46:43.027Z,32.22
2023-03-06T01:49:15.601Z,30.65
2023-03-06T01:51:48.560Z,30.43
2023-03-06T01:54:22.742Z,28.60
2023-03-06T01:56:54.374Z,31.88
2023-03-06T01:59:22.961Z,30.20
2023-03-06T02:01:51.647Z,31.20
2023-03-06T02:04:19.699Z,32.33
2023-03-06T02:06:49.135Z,28.75
2023-03-06T02:09:18.456Z,28.67
2023-03-06T02:11:46.482Z,28.90
2023-03-06T02:14:16.174Z,31.23
2023-03-06T02:16:44.317Z,29.60
2023-03-06T02:19:21.059Z,29.70
2023-03-06T02:21:49.014Z,31.58
2023-03-06T02:24:35.781Z,32.63
2023-03-06T02:27:05.914Z,31.93
2023-03-06T02:29:34.054Z,32.10
2023-03-06T02:32:02.083Z,33.53
2023-03-06T02:34:52.895Z,31.33
2023-03-06T02:37:21.140Z,32.50
2023-03-06T02:39:52.301Z,32.03
2023-03-06T02:42:23.223Z,31.90
2023-03-06T02:44:52.773Z,30.87
2023-03-06T02:47:20.678Z,30.57
2023-03-06T02:49:48.596Z,34.07
2023-03-06T02:52:16.531Z,31.90
2023-03-06T02:54:44.385Z,34.33
2023-03-06T02:57:12.451Z,33.13
2023-03-06T02:59:41.697Z,35.43
2023-03-06T03:02:09.744Z,32.73
2023-03-06T03:04:37.711Z,31.95
2023-03-06T03:07:05.779Z,34.67
2023-03-06T03:09:36.901Z,33.88
2023-03-06T03:12:08.255Z,34.47
2023-03-06T03:14:36.274Z,32.60
2023-03-06T03:17:05.559Z,34.78
2023-03-06T03:19:33.611Z,34.03
2023-03-06T03:22:01.539Z,39.95
2023-03-06T03:24:29.536Z,32.75
2023-03-06T03:26:57.512Z,35.60
2023-03-06T03:29:25.691Z,32.17
2023-03-06T03:31:53.610Z,33.53
2023-03-06T03:34:22.988Z,35.00
2023-03-06T03:36:50.937Z,36.33
2023-03-06T03:39:18.889Z,32.13
2023-03-06T03:41:47.020Z,34.42
2023-03-06T03:44:14.919Z,33.45
2023-03-06T03:46:42.885Z,34.17
2023-03-06T03:49:11.009Z,33.47
2023-03-06T03:51:40.332Z,36.10
2023-03-06T03:54:08.286Z,36.43
2023-03-06T03:56:36.219Z,35.35
2023-03-06T03:59:04.133Z,34.33
2023-03-06T04:01:32.053Z,35.83
2023-03-06T04:03:59.914Z,38.00
2023-03-06T04:06:27.899Z,37.23
2023-03-06T04:08:57.178Z,36.53
2023-03-06T04:11:25.132Z,37.33
2023-03-06T04:13:53.079Z,38.90
2023-03-06T04:16:21.099Z,38.13
2023-03-06T04:18:49.017Z,38.97
2023-03-06T04:21:16.959Z,34.27
2023-03-06T04:23:44.848Z,32.83
2023-03-06T04:26:14.103Z,39.45
2023-03-06T04:28:42.008Z,35.40
2023-03-06T04:31:09.930Z,37.20
2023-03-06T04:33:37.847Z,35.53
2023-03-06T04:36:06.628Z,37.93
2023-03-06T04:38:34.530Z,34.65
2023-03-06T04:41:02.468Z,41.63
2023-03-06T04:43:31.843Z,33.73
2023-03-06T04:45:59.767Z,35.67
2023-03-06T04:48:27.678Z,40.83
2023-03-06T04:50:55.610Z,40.20
2023-03-06T04:53:23.463Z,35.77
2023-03-06T04:55:51.361Z,36.47
2023-03-06T04:58:19.276Z,40.13
2023-03-06T05:00:48.632Z,39.10
2023-03-06T05:03:16.554Z,37.13
2023-03-06T05:05:44.502Z,38.00
2023-03-06T05:08:15.212Z,41.23
2023-03-06T05:10:43.440Z,36.63
2023-03-06T05:13:11.405Z,42.50
2023-03-06T05:15:41.446Z,39.93
2023-03-06T05:18:10.690Z,41.53
2023-03-06T05:20:38.594Z,39.37
2023-03-06T05:23:06.452Z,41.80
2023-03-06T05:25:34.342Z,39.80
2023-03-06T05:28:02.248Z,40.57
2023-03-06T05:30:30.189Z,38.53
2023-03-06T05:32:58.011Z,36.63
2023-03-06T05:35:27.310Z,41.57
2023-03-06T05:37:55.530Z,40.13
2023-03-06T05:40:23.498Z,37.87
2023-03-06T05:42:51.349Z,38.63
2023-03-06T05:45:19.333Z,35.60
2023-03-06T05:47:47.372Z,39.33
2023-03-06T05:50:15.332Z,35.13
2023-03-06T05:52:44.592Z,38.50
2023-03-06T05:55:13.539Z,36.80
2023-03-06T05:57:41.425Z,41.37
2023-03-06T06:00:10.508Z,38.70
2023-03-06T06:02:38.521Z,38.03
2023-03-06T06:05:07.177Z,37.23
2023-03-06T06:07:35.040Z,37.57
2023-03-06T06:10:04.860Z,38.90
2023-03-06T06:12:32.768Z,38.50
2023-03-06T06:15:00.628Z,38.33
2023-03-06T06:17:28.643Z,36.10
2023-03-06T06:19:56.473Z,36.13
2023-03-06T06:22:24.326Z,39.95
2023-03-06T06:24:52.286Z,35.63
2023-03-06T06:27:21.538Z,39.17
2023-03-06T06:29:51.878Z,37.30
2023-03-06T06:32:19.881Z,41.17
2023-03-06T06:34:47.878Z,37.97
2023-03-06T06:37:15.759Z,36.43
2023-03-06T06:39:43.691Z,37.50
2023-03-06T06:42:29.838Z,36.35
2023-03-06T06:45:01.508Z,35.87
2023-03-06T06:47:29.529Z,35.53
2023-03-06T06:49:57.692Z,36.93
2023-03-06T06:52:26.197Z,37.80
2023-03-06T06:54:54.356Z,40.10
2023-03-06T06:57:22.301Z,38.63
2023-03-06T06:59:52.575Z,36.63
2023-03-06T07:02:23.389Z,36.78
2023-03-06T07:05:05.715Z,37.75
2023-03-06T07:07:36.654Z,35.53
2023-03-06T07:10:08.485Z,39.13
2023-03-06T07:12:36.652Z,37.22
2023-03-06T07:15:05.378Z,37.63
2023-03-06T07:17:34.834Z,39.38
2023-03-06T07:20:02.925Z,37.63
2023-03-06T07:22:41.459Z,42.15
2023-03-06T07:25:16.650Z,37.38
2023-03-06T07:27:52.589Z,35.65
2023-03-06T07:30:21.369Z,40.58
2023-03-06T07:32:53.844Z,39.40
2023-03-06T07:35:22.093Z,37.10
2023-03-06T07:37:50.035Z,36.53
2023-03-06T07:40:19.652Z,40.60
2023-03-06T07:42:47.775Z,39.58
2023-03-06T07:45:15.744Z,38.63
2023-03-06T07:47:43.711Z,35.30
2023-03-06T07:50:13.700Z,38.30
2023-03-06T07:52:41.584Z,40.08
2023-03-06T07:55:10.738Z,40.10
2023-03-06T07:57:39.316Z,38.28
2023-03-06T08:00:11.363Z,39.25
2023-03-06T08:02:39.320Z,35.17
2023-03-06T08:05:08.435Z,39.47
2023-03-06T08:07:37.661Z,37.75
2023-03-06T08:10:06.641Z,40.70
2023-03-06T08:12:34.608Z,39.13
2023-03-06T08:15:03.495Z,31.80
2023-03-06T08:17:31.354Z,33.53
2023-03-06T08:19:59.282Z,36.25
2023-03-06T08:22:27.221Z,32.13
2023-03-06T08:24:57.140Z,32.90
2023-03-06T08:27:25.158Z,30.05
2023-03-06T08:29:53.130Z,33.05
2023-03-06T08:32:21.066Z,31.77
2023-03-06T08:34:48.945Z,32.45
2023-03-06T08:37:16.875Z,33.42
2023-03-06T08:39:44.830Z,28.13
2023-03-06T08:42:14.485Z,31.45
2023-03-06T08:44:42.749Z,28.98
2023-03-06T08:47:10.901Z,28.92
2023-03-06T08:49:39.651Z,31.45
2023-03-06T08:52:07.946Z,31.63
2023-03-06T08:54:36.513Z,31.58
2023-03-06T08:57:04.649Z,30.05
2023-03-06T08:59:33.906Z,32.33
2023-03-06T09:02:01.964Z,30.75
2023-03-06T09:04:31.049Z,31.58
2023-03-06T09:06:58.945Z,35.38
2023-03-06T09:09:26.894Z,32.42
2023-03-06T09:11:54.970Z,35.30
2023-03-06T09:14:22.934Z,33.22
2023-03-06T09:16:52.227Z,32.55
2023-03-06T09:19:20.191Z,35.65
2023-03-06T09:21:49.145Z,33.88
2023-03-06T09:24:17.139Z,33.83
2023-03-06T09:26:47.021Z,35.80
2023-03-06T09:29:17.566Z,32.47
2023-03-06T09:31:45.750Z,33.03
2023-03-06T09:34:15.326Z,32.55
2023-03-06T09:36:56.069Z,35.95
2023-03-06T09:39:25.933Z,31.45
2023-03-06T09:41:54.373Z,32.72
2023-03-06T09:44:26.114Z,33.28
2023-03-06T09:47:24.756Z,32.55
2023-03-06T09:50:05.797Z,29.42
2023-03-06T09:52:38.594Z,28.50
2023-03-06T09:55:12.628Z,27.42
2023-03-06T09:57:44.326Z,29.48
2023-03-06T10:00:15.672Z,28.05
2023-03-06T10:02:45.979Z,28.83
2023-03-06T10:05:20.022Z,29.75
2023-03-06T10:07:52.151Z,28.35
2023-03-06T10:10:22.219Z,26.60
2023-03-06T10:12:56.847Z,27.05
2023-03-06T10:15:27.118Z,23.13
2023-03-06T10:17:55.245Z,20.80
2023-03-06T10:20:27.227Z,22.00
2023-03-06T10:23:15.435Z,26.15
2023-03-06T10:25:49.959Z,20.00
2023-03-06T10:28:20.580Z,20.15
2023-03-06T10:30:53.815Z,22.45
2023-03-06T10:33:24.169Z,18.05
2023-03-06T10:35:55.226Z,18.45
2023-03-06T10:38:25.724Z,22.38
2023-03-06T10:41:08.451Z,20.25
2023-03-06T10:43:37.347Z,19.25
2023-03-06T10:46:06.421Z,21.55
2023-03-06T10:48:36.131Z,19.70
2023-03-06T10:51:18.907Z,18.00
2023-03-06T10:53:52.813Z,23.45
2023-03-06T10:56:32.517Z,25.45
2023-03-06T10:59:12.713Z,23.77
2023-03-06T11:01:41.962Z,22.70
2023-03-06T11:04:18.489Z,19.75
2023-03-06T11:06:47.885Z,18.38
2023-03-06T11:09:17.695Z,19.50
2023-03-06T11:11:45.661Z,19.10
2023-03-06T11:14:16.565Z,20.65
2023-03-06T11:16:52.737Z,21.42
2023-03-06T11:19:24.104Z,20.83
2023-03-06T11:22:04.637Z,17.40
2023-03-06T11:24:37.984Z,21.92
2023-03-06T11:27:16.259Z,22.17
2023-03-06T11:29:45.227Z,21.38
2023-03-06T11:32:17.474Z,21.13
2023-03-06T11:34:50.586Z,19.27
2023-03-06T11:37:27.463Z,18.90
2023-03-06T11:40:01.967Z,17.45
2023-03-06T11:42:31.537Z,20.08
2023-03-06T11:45:10.037Z,19.05
2023-03-06T11:47:40.500Z,17.45
2023-03-06T11:50:19.108Z,17.92
2023-03-06T11:52:50.245Z,16.92
2023-03-06T11:55:25.665Z,21.08
2023-03-06T11:57:58.297Z,18.35
2023-03-06T12:00:44.320Z,17.70
2023-03-06T12:03:53.363Z,18.05
2023-03-06T12:06:28.432Z,21.70
2023-03-06T12:09:17.171Z,19.75
2023-03-06T12:11:49.721Z,20.92
2023-03-06T12:14:29.387Z,20.15
2023-03-06T12:17:06.858Z,20.48
2023-03-06T12:19:45.668Z,19.73
2023-03-06T12:22:26.427Z,20.27
2023-03-06T12:25:05.267Z,20.23
2023-03-06T12:27:39.618Z,18.45
2023-03-06T12:30:27.083Z,21.10
2023-03-06T12:33:02.161Z,18.67
2023-03-06T12:35:50.068Z,20.25
2023-03-06T12:38:31.799Z,20.48
2023-03-06T12:41:08.130Z,22.88
2023-03-06T12:43:51.421Z,23.02
2023-03-06T12:46:21.896Z,20.50
2023-03-06T12:49:03.626Z,20.48
2023-03-06T12:51:33.070Z,18.75
2023-03-06T12:54:01.645Z,22.42
2023-03-06T12:56:31.908Z,22.10
2023-03-06T12:59:02.318Z,23.13
2023-03-06T13:01:40.422Z,24.63
2023-03-06T13:04:26.864Z,24.13
2023-03-06T13:07:07.062Z,24.67
2023-03-06T13:09:38.925Z,23.48
2023-03-06T13:12:19.017Z,24.55
2023-03-06T13:14:58.970Z,24.45
2023-03-06T13:17:37.279Z,26.70
2023-03-06T13:20:35.505Z,23.40
2023-03-06T13:23:42.607Z,23.85
2023-03-06T13:26:12.198Z,26.38
2023-03-06T13:28:46.142Z,23.83
2023-03-06T13:31:26.663Z,25.58
2023-03-06T13:33:58.728Z,25.75
2023-03-06T13:36:30.038Z,30.35
2023-03-06T13:39:05.701Z,28.20
2023-03-06T13:41:39.644Z,27.75
2023-03-06T13:44:40.402Z,27.50
2023-03-06T13:48:02.451Z,26.73
2023-03-06T13:50:36.788Z,23.70
2023-03-06T13:53:34.437Z,29.48
2023-03-06T13:56:16.151Z,22.73
2023-03-06T13:58:55.128Z,22.55
2023-03-06T14:01:37.462Z,23.55
2023-03-06T14:04:30.717Z,23.83
2023-03-06T14:07:18.222Z,23.38
2023-03-06T14:09:48.203Z,24.23
2023-03-06T14:12:23.765Z,23.05
2023-03-06T14:14:55.650Z,21.83
2023-03-06T14:17:29.556Z,21.60
2023-03-06T14:20:01.087Z,25.55
2023-03-06T14:22:29.019Z,24.02
2023-03-06T14:24:59.807Z,22.15
2023-03-06T14:27:45.232Z,20.63
2023-03-06T14:30:17.408Z,21.58
2023-03-06T14:32:46.735Z,21.77
2023-03-06T14:35:27.120Z,18.85
2023-03-06T14:37:57.743Z,20.25
2023-03-06T14:40:30.593Z,18.90
2023-03-06T14:43:12.214Z,20.83
2023-03-06T14:45:50.849Z,17.38
2023-03-06T14:48:20.189Z,17.20
2023-03-06T14:50:50.537Z,18.67
2023-03-06T14:53:21.954Z,22.23
2023-03-06T14:55:51.652Z,25.27
2023-03-06T14:58:21.829Z,16.77
2023-03-06T15:00:54.563Z,16.85
2023-03-06T15:03:26.811Z,15.90
2023-03-06T15:05:55.354Z,14.95
2023-03-06T15:08:26.536Z,14.45
2023-03-06T15:10:59.658Z,17.00
2023-03-06T15:13:29.773Z,18.02
2023-03-06T15:15:59.962Z,15.93
2023-03-06T15:18:33.748Z,15.77
2023-03-06T15:21:10.138Z,15.38
2023-03-06T15:23:39.838Z,15.00
2023-03-06T15:26:21.733Z,15.90
2023-03-06T15:29:07.047Z,16.70
2023-03-06T15:31:37.938Z,15.98
2023-03-06T15:34:23.353Z,17.77
2023-03-06T15:36:54.270Z,13.35
2023-03-06T15:39:43.278Z,14.52
2023-03-06T15:42:19.689Z,14.70
2023-03-06T15:44:49.458Z,13.45
2023-03-06T15:47:17.775Z,14.68
2023-03-06T15:49:49.043Z,15.15
2023-03-06T15:52:16.919Z,15.82
2023-03-06T15:54:44.897Z,14.07
2023-03-06T15:57:20.606Z,15.90
2023-03-06T15:59:48.622Z,15.30
2023-03-06T16:02:18.730Z,13.65
2023-03-06T16:04:48.644Z,15.65
2023-03-06T16:07:16.603Z,14.38
2023-03-06T16:09:44.766Z,15.95
2023-03-06T16:12:17.325Z,14.95
2023-03-06T16:14:45.529Z,15.85
2023-03-06T16:17:13.541Z,13.35
2023-03-06T16:19:41.488Z,15.20
2023-03-06T16:22:10.846Z,12.85
2023-03-06T16:24:38.762Z,14.55
2023-03-06T16:27:06.969Z,14.50
2023-03-06T16:29:35.193Z,15.85
2023-03-06T16:32:04.498Z,15.50
2023-03-06T16:34:32.674Z,13.25
2023-03-06T16:37:00.667Z,16.60
2023-03-06T16:39:29.884Z,15.68
2023-03-06T16:41:57.797Z,13.82
2023-03-06T16:44:25.625Z,15.93
2023-03-06T16:46:53.589Z,15.75
2023-03-06T16:49:23.020Z,15.13
2023-03-06T16:51:51.886Z,15.32
2023-03-06T16:54:23.228Z,15.55
2023-03-06T16:56:52.571Z,19.35
2023-03-06T16:59:20.459Z,18.50
2023-03-06T17:01:48.524Z,15.43
2023-03-06T17:04:16.360Z,16.85
2023-03-06T17:06:44.331Z,17.02
2023-03-06T17:09:14.263Z,15.73
2023-03-06T17:11:43.452Z,16.50
2023-03-06T17:14:12.688Z,16.35
2023-03-06T17:16:40.724Z,16.33
2023-03-06T17:19:09.257Z,18.15
2023-03-06T17:21:38.485Z,15.52
2023-03-06T17:24:07.013Z,17.20
2023-03-06T17:26:36.528Z,17.80
2023-03-06T17:29:07.195Z,24.38
2023-03-06T17:31:36.590Z,17.70
2023-03-06T17:34:04.535Z,16.52
2023-03-06T17:36:33.321Z,19.42
2023-03-06T17:39:02.878Z,19.42
2023-03-06T17:41:32.846Z,17.10
2023-03-06T17:44:01.779Z,15.50
2023-03-06T17:46:31.802Z,14.40
2023-03-06T17:49:01.182Z,14.38
2023-03-06T17:51:29.121Z,16.02
2023-03-06T17:53:57.472Z,16.90
2023-03-06T17:56:25.464Z,12.75
2023-03-06T17:58:53.505Z,15.10
2023-03-06T18:01:23.176Z,18.20
2023-03-06T18:03:52.350Z,16.00
2023-03-06T18:06:22.348Z,16.42
2023-03-06T18:08:52.716Z,14.32
2023-03-06T18:11:21.323Z,15.25
2023-03-06T18:13:49.254Z,13.40
2023-03-06T18:16:19.200Z,14.07
2023-03-06T18:18:47.478Z,15.75
2023-03-06T18:21:28.832Z,14.93
2023-03-06T18:23:58.451Z,14.77
2023-03-06T18:26:27.936Z,13.85
2023-03-06T18:28:58.861Z,14.10
2023-03-06T18:31:28.665Z,12.38
2023-03-06T18:33:58.570Z,12.45
2023-03-06T18:36:28.884Z,11.98
2023-03-06T18:38:58.721Z,14.77
2023-03-06T18:41:28.949Z,9.10
2023-03-06T18:43:58.351Z,8.77
2023-03-06T18:46:27.119Z,9.57
2023-03-06T18:48:56.396Z,10.35
2023-03-06T18:51:24.417Z,7.70
2023-03-06T18:53:52.384Z,8.93
2023-03-06T18:56:22.852Z,8.95
2023-03-06T18:58:51.367Z,9.13
2023-03-06T19:01:19.829Z,9.63
2023-03-06T19:03:47.852Z,9.70
2023-03-06T19:06:17.990Z,9.23
2023-03-06T19:08:46.214Z,8.90
2023-03-06T19:11:15.480Z,9.70
2023-03-06T19:13:45.646Z,10.48
2023-03-06T19:16:18.182Z,9.40
2023-03-06T19:18:46.118Z,12.27
2023-03-06T19:21:18.231Z,11.07
2023-03-06T19:23:46.312Z,11.43
2023-03-06T19:26:16.752Z,12.55
2023-03-06T19:28:46.765Z,13.93
2023-03-06T19:31:19.508Z,11.60
2023-03-06T19:33:48.427Z,12.18
2023-03-06T19:36:18.184Z,13.80
2023-03-06T19:38:50.333Z,13.60
2023-03-06T19:41:18.264Z,16.63
2023-03-06T19:43:52.136Z,14.57
2023-03-06T19:46:20.324Z,15.68
2023-03-06T19:48:48.498Z,14.05
2023-03-06T19:51:16.555Z,14.48
2023-03-06T19:53:44.417Z,13.32
2023-03-06T19:56:15.876Z,13.82
2023-03-06T19:58:43.773Z,11.88
2023-03-06T20:01:14.757Z,12.48
2023-03-06T20:03:43.010Z,12.55
2023-03-06T20:06:13.723Z,13.88
2023-03-06T20:08:41.701Z,13.10
2023-03-06T20:11:16.568Z,14.10
2023-03-06T20:13:47.332Z,12.75
2023-03-06T20:16:16.884Z,13.73
2023-03-06T20:18:45.473Z,15.02
2023-03-06T20:21:13.981Z,15.85
2023-03-06T20:23:42.125Z,10.43
2023-03-06T20:26:11.845Z,13.82
2023-03-06T20:28:41.280Z,11.27
2023-03-06T20:31:09.872Z,12.55
2023-03-06T20:33:39.225Z,14.68
2023-03-06T20:36:13.253Z,10.98
2023-03-06T20:38:41.260Z,10.35
2023-03-06T20:41:15.294Z,11.70
2023-03-06T20:43:43.227Z,9.38
2023-03-06T20:46:11.641Z,14.57
2023-03-06T20:48:41.449Z,9.70
2023-03-06T20:51:12.101Z,11.65
2023-03-06T20:53:40.026Z,11.38
2023-03-06T20:56:08.481Z,9.70
2023-03-06T20:58:36.451Z,8.20
2023-03-06T21:01:04.413Z,10.13
2023-03-06T21:03:32.362Z,9.65
2023-03-06T21:06:01.776Z,10.32
2023-03-06T21:08:29.704Z,9.43
2023-03-06T21:10:57.641Z,13.73
2023-03-06T21:13:25.510Z,8.38
2023-03-06T21:15:53.496Z,8.70
2023-03-06T21:18:21.497Z,7.60
2023-03-06T21:20:49.470Z,8.38
2023-03-06T21:23:18.798Z,6.32
2023-03-06T21:25:49.923Z,6.10
2023-03-06T21:28:18.612Z,8.32
2023-03-06T21:30:47.107Z,10.50
2023-03-06T21:33:16.126Z,7.72
2023-03-06T21:35:45.080Z,6.40
2023-03-06T21:38:13.360Z,7.82
2023-03-06T21:40:43.258Z,8.65
2023-03-06T21:43:11.402Z,9.30
2023-03-06T21:45:39.438Z,8.45
2023-03-06T21:48:07.658Z,8.70
2023-03-06T21:50:35.880Z,7.80
2023-03-06T21:53:03.816Z,7.22
2023-03-06T21:55:31.699Z,7.75
2023-03-06T21:58:00.995Z,11.73
2023-03-06T22:00:28.876Z,9.43
2023-03-06T22:02:57.227Z,8.00
2023-03-06T22:05:25.909Z,6.15
2023-03-06T22:07:53.791Z,12.10
2023-03-06T22:10:21.934Z,6.25
2023-03-06T22:12:49.793Z,5.85
2023-03-06T22:15:20.451Z,5.30
2023-03-06T22:17:48.659Z,5.00
2023-03-06T22:20:16.847Z,6.93
2023-03-06T22:22:44.746Z,4.97
2023-03-06T22:25:12.969Z,7.53
2023-03-06T22:27:40.862Z,9.40
2023-03-06T22:30:10.096Z,5.88
2023-03-06T22:32:39.345Z,5.30
2023-03-06T22:35:07.879Z,7.43
2023-03-06T22:37:35.760Z,6.50
2023-03-06T22:40:06.519Z,6.75
2023-03-06T22:42:34.442Z,5.47
2023-03-06T22:45:02.357Z,7.72
2023-03-06T22:47:30.203Z,5.03
2023-03-06T22:49:59.455Z,8.25
2023-03-06T22:52:27.330Z,5.07
2023-03-06T22:54:55.329Z,8.18
2023-03-06T22:57:23.188Z,5.43
2023-03-06T22:59:51.129Z,6.43
2023-03-06T23:02:19.023Z,6.03
2023-03-06T23:04:52.142Z,4.20
2023-03-06T23:07:21.889Z,9.65
2023-03-06T23:09:49.837Z,5.38
2023-03-06T23:12:17.686Z,5.00
2023-03-06T23:14:49.536Z,9.18
2023-03-06T23:17:17.679Z,9.80
2023-03-06T23:19:45.610Z,8.85
2023-03-06T23:22:14.397Z,5.85
2023-03-06T23:24:43.738Z,5.22
2023-03-06T23:27:11.724Z,5.80
2023-03-06T23:29:39.736Z,8.88
2023-03-06T23:32:08.401Z,4.82
2023-03-06T23:34:36.291Z,6.55
2023-03-06T23:37:04.385Z,4.75
2023-03-06T23:39:33.632Z,4.43
2023-03-06T23:42:02.883Z,5.60
2023-03-06T23:44:31.038Z,9.95
2023-03-06T23:46:58.872Z,5.82
2023-03-06T23:49:26.789Z,6.28
2023-03-06T23:51:54.645Z,7.05
2023-03-06T23:54:22.541Z,8.27
2023-03-06T23:56:50.446Z,4.85
2023-03-06T23:59:19.786Z,5.75
